Piamonte, Argentina
Current Conditions -  °F | °C
As of 9:00 AM on Monday 24 Nov 2014 (Local Time) from SAAR Reporting Station
Broken Clouds Broken Clouds  
Wind Chill: 75°   Ceiling: 2800
Heat Index: 75°   Visibility: 6mi
Dew Point: 63°   Wind: 3mph
Humidity: 65%   Direction: 230°SW
Pressure: 29.77"   Gusts: NA
Location:  32.13°S, 61.98°W
Report Text: SAAR 241200Z 23003KT 9999 BKN028 BKN100 24/17 Q1008
Loading
Personal Weather Stations






























Interactive Weather Map New forecast layout! Learn more

10-Day Weather Forecast

Advertisements
Track Severe Weather on mobile